Time;durP1;ratioP1;P1;durP2;ratioP2;P2;SDS_P1;SDS_P2;PMS_P1;PMS_P2;Temp;Humidity;BMP_temperature;BMP_pressure;BME280_temperature;BME280_humidity;BME280_pressure;Samples;Min_cycle;Max_cycle;Signal;HPM_P1;HPM_P2
2021/09/23 00:02:03;;;;;;;7.87;7.17;;;9.30;99.90;;;10.11;89.16;98727.16;5168842;28;20205;-53
2021/09/23 00:04:39;;;;;;;7.43;6.83;;;9.30;99.90;;;10.09;88.54;98721.03;5170482;28;20234;-52
2021/09/23 00:07:12;;;;;;;7.80;7.10;;;9.30;99.90;;;9.98;87.67;98719.38;5171039;28;20227;-54
2021/09/23 00:09:45;;;;;;;7.93;7.27;;;9.10;99.90;;;9.90;88.16;98721.34;5169701;28;20234;-57
2021/09/23 00:12:19;;;;;;;8.47;7.67;;;9.10;99.90;;;9.88;89.15;98718.69;5178987;28;20618;-55
2021/09/23 00:14:52;;;;;;;8.13;7.43;;;9.10;99.90;;;9.90;88.88;98724.81;5173449;28;20199;-54
2021/09/23 00:17:26;;;;;;;8.87;8.13;;;9.10;99.90;;;9.83;90.24;98722.56;5162559;28;20206;-56
2021/09/23 00:20:01;;;;;;;8.97;8.07;;;9.10;99.90;;;9.74;90.50;98713.34;5170321;28;20659;-55
2021/09/23 00:22:34;;;;;;;7.90;7.30;;;9.10;99.90;;;9.75;90.17;98707.47;5174858;28;20246;-54
2021/09/23 00:25:08;;;;;;;8.63;7.80;;;9.00;99.90;;;9.79;89.96;98702.72;5171053;28;20210;-55
2021/09/23 00:27:42;;;;;;;8.30;7.50;;;9.00;99.90;;;9.88;90.49;98708.47;5170124;28;20198;-51
2021/09/23 00:30:16;;;;;;;8.07;7.37;;;9.10;99.90;;;9.88;89.55;98705.94;5170590;28;20231;-53
2021/09/23 00:32:50;;;;;;;8.10;7.40;;;9.10;99.90;;;9.90;90.02;98699.28;5170803;28;20223;-57
2021/09/23 00:35:25;;;;;;;8.40;7.60;;;9.10;99.90;;;9.97;89.61;98699.72;5170921;28;20228;-54
2021/09/23 00:37:59;;;;;;;8.03;7.30;;;9.20;99.90;;;9.92;89.97;98694.28;5169703;28;20258;-56
2021/09/23 00:40:32;;;;;;;8.17;7.47;;;9.10;99.90;;;9.91;89.07;98692.50;5171345;28;20667;-56
2021/09/23 00:43:05;;;;;;;7.87;7.23;;;9.20;99.90;;;9.93;89.97;98686.72;5170010;28;20231;-51
2021/09/23 00:45:39;;;;;;;8.33;7.67;;;9.20;99.90;;;9.97;88.76;98687.84;5169745;28;20195;-54
2021/09/23 00:48:12;;;;;;;8.40;7.57;;;9.20;99.90;;;9.91;88.61;98683.16;5167770;28;20618;-53
2021/09/23 00:50:47;;;;;;;8.87;8.07;;;9.10;99.90;;;9.83;89.31;98689.38;5168591;28;20210;-52
2021/09/23 00:53:21;;;;;;;9.70;8.30;;;9.10;99.90;;;9.88;89.16;98682.94;5167538;28;20282;-57
2021/09/23 00:55:57;;;;;;;9.03;8.23;;;9.10;99.90;;;9.84;88.84;98688.63;5167347;28;20622;-56
2021/09/23 00:58:31;;;;;;;7.87;7.17;;;9.10;99.90;;;9.79;89.26;98682.28;5165382;28;20321;-56
2021/09/23 01:01:04;;;;;;;9.10;8.30;;;9.00;99.90;;;9.77;89.28;98676.16;5166205;28;20494;-56
2021/09/23 01:03:38;;;;;;;10.57;8.00;;;9.00;99.90;;;9.80;89.51;98684.06;5167400;28;20786;-55
2021/09/23 01:06:12;;;;;;;8.77;7.97;;;9.10;99.90;;;9.81;89.93;98680.72;5164250;28;20703;-58
2021/09/23 01:08:54;;;;;;;8.50;7.70;;;9.10;99.90;;;9.76;89.34;98683.69;5168012;28;20226;-57
2021/09/23 01:11:29;;;;;;;8.13;7.33;;;9.00;99.90;;;9.75;88.47;98675.16;5166859;28;20199;-58
2021/09/23 01:14:02;;;;;;;8.03;7.33;;;8.90;99.90;;;9.74;89.07;98678.50;5166271;28;20230;-53
2021/09/23 01:16:35;;;;;;;7.63;6.93;;;8.90;99.90;;;9.79;89.55;98676.28;5166333;28;20211;-57
2021/09/23 01:19:08;;;;;;;7.80;7.20;;;9.00;99.90;;;9.80;88.42;98676.41;5165810;28;20686;-51
2021/09/23 01:21:43;;;;;;;7.87;7.27;;;9.00;99.90;;;9.80;88.50;98678.94;5166448;28;20203;-55
2021/09/23 01:24:16;;;;;;;7.37;6.73;;;9.00;99.90;;;9.80;88.90;98676.41;5166783;28;20209;-56
2021/09/23 01:26:50;;;;;;;7.57;6.87;;;9.00;99.90;;;9.72;88.27;98667.28;5176528;28;20211;-52
2021/09/23 01:29:23;;;;;;;7.70;7.10;;;8.90;99.90;;;9.70;88.24;98666.31;5166790;28;20195;-54
2021/09/23 01:31:57;;;;;;;7.67;7.00;;;8.90;99.90;;;9.64;88.49;98673.47;5163533;28;20620;-55
2021/09/23 01:34:30;;;;;;;8.10;7.40;;;8.80;99.90;;;9.59;88.95;98672.28;5165242;28;20707;-55
2021/09/23 01:37:05;;;;;;;7.83;7.17;;;8.80;99.90;;;9.62;88.67;98675.06;5165806;28;20262;-55
2021/09/23 01:39:39;;;;;;;7.53;7.00;;;8.80;99.90;;;9.60;88.90;98674.03;5166837;28;20246;-54
2021/09/23 01:42:12;;;;;;;5.90;5.40;;;8.80;99.90;;;9.63;88.16;98670.03;5165457;28;20254;-52
2021/09/23 01:44:45;;;;;;;6.83;6.33;;;8.80;99.90;;;9.58;88.35;98670.47;5166313;28;20675;-56
2021/09/23 01:47:18;;;;;;;6.77;6.17;;;8.70;99.90;;;9.57;88.05;98655.97;5165476;28;20231;-55
2021/09/23 01:49:51;;;;;;;9.00;6.30;;;8.70;99.90;;;9.57;87.49;98653.41;5166362;28;20243;-56
2021/09/23 01:52:26;;;;;;;7.17;6.67;;;8.70;99.90;;;9.55;87.23;98660.94;5181679;23;20260;-53
2021/09/23 01:54:59;;;;;;;6.27;5.77;;;8.70;99.90;;;9.52;87.59;98662.38;5205270;28;20287;-55
2021/09/23 01:57:32;;;;;;;6.67;6.17;;;8.70;99.90;;;9.48;87.58;98657.06;5204180;28;20299;-51
2021/09/23 02:00:07;;;;;;;7.13;6.47;;;8.70;99.90;;;9.49;87.75;98660.47;5201760;28;20317;-52
2021/09/23 02:02:40;;;;;;;7.00;6.40;;;8.70;99.90;;;9.45;87.91;98661.94;5205610;28;20343;-56
2021/09/23 02:05:14;;;;;;;7.20;6.50;;;8.70;99.90;;;9.48;88.20;98664.72;5205354;28;20225;-54
2021/09/23 02:07:48;;;;;;;6.93;6.43;;;8.70;99.90;;;9.39;87.99;98658.94;5205255;28;20611;-56
2021/09/23 02:10:22;;;;;;;7.03;6.43;;;8.60;99.90;;;9.39;88.08;98653.81;5206158;28;20201;-55
2021/09/23 02:12:55;;;;;;;6.67;6.00;;;8.60;99.90;;;9.44;88.03;98641.38;5203268;28;20713;-58
2021/09/23 02:15:28;;;;;;;7.13;6.53;;;8.60;99.90;;;9.42;87.47;98643.84;5204447;28;20198;-58
2021/09/23 02:18:02;;;;;;;7.07;6.47;;;8.60;99.90;;;9.43;87.26;98653.25;5201951;28;20194;-57
2021/09/23 02:20:35;;;;;;;6.53;6.03;;;8.60;99.90;;;9.41;88.07;98654.84;5205563;28;20596;-54
2021/09/23 02:23:09;;;;;;;6.10;5.60;;;8.60;99.90;;;9.39;87.39;98646.16;5205304;28;20225;-53
2021/09/23 02:25:43;;;;;;;5.80;5.40;;;8.50;99.90;;;9.35;87.37;98646.69;5203974;28;20209;-54
2021/09/23 02:28:16;;;;;;;6.00;5.60;;;8.50;99.90;;;9.27;86.60;98636.69;5203986;28;20222;-56
2021/09/23 02:30:49;;;;;;;6.07;5.57;;;8.40;99.90;;;9.25;86.75;98639.16;5203436;28;20240;-55
2021/09/23 02:33:22;;;;;;;6.27;5.77;;;8.30;99.90;;;9.27;86.53;98637.63;5203354;28;20246;-56
2021/09/23 02:35:56;;;;;;;5.70;5.30;;;8.40;99.90;;;9.22;85.93;98628.72;5204483;28;20205;-55
2021/09/23 02:38:30;;;;;;;6.33;5.70;;;8.30;99.90;;;9.19;85.39;98625.94;5204677;28;20229;-57
2021/09/23 02:41:03;;;;;;;6.60;6.03;;;8.30;99.90;;;9.12;85.62;98622.03;5204998;28;20194;-54
2021/09/23 02:43:37;;;;;;;5.90;5.43;;;8.20;99.90;;;9.10;86.25;98621.03;5203735;28;20241;-57
2021/09/23 02:46:10;;;;;;;6.07;5.57;;;8.20;99.90;;;8.99;85.75;98616.81;5201322;28;20247;-54
2021/09/23 02:48:43;;;;;;;6.13;5.63;;;8.10;99.90;;;8.96;85.53;98608.94;5204493;28;20202;-57
2021/09/23 02:51:16;;;;;;;5.67;5.17;;;8.00;99.90;;;8.92;85.26;98612.00;5199697;28;20240;-56
2021/09/23 02:53:51;;;;;;;5.27;4.87;;;7.90;99.90;;;8.86;85.40;98612.41;5204143;28;20237;-54
2021/09/23 02:56:25;;;;;;;6.20;5.60;;;8.00;99.90;;;8.82;85.42;98592.59;5202536;28;20236;-57
2021/09/23 02:58:58;;;;;;;6.33;5.83;;;7.90;99.90;;;8.82;85.63;98595.13;5203564;28;20197;-54
2021/09/23 03:01:31;;;;;;;6.37;5.77;;;7.90;99.90;;;8.79;85.74;98594.91;5202419;28;20251;-55
2021/09/23 03:04:05;;;;;;;5.97;5.47;;;7.90;99.90;;;8.74;85.72;98592.00;5204249;28;20236;-55
2021/09/23 03:06:38;;;;;;;5.97;5.30;;;7.90;99.90;;;8.73;86.00;98597.00;5197291;28;20249;-57
2021/09/23 03:09:12;;;;;;;5.53;5.13;;;7.90;99.90;;;8.75;86.26;98588.66;5204206;28;20214;-56
2021/09/23 03:11:45;;;;;;;6.40;5.80;;;8.00;99.90;;;8.74;86.12;98586.00;5200358;28;20200;-53
2021/09/23 03:14:18;;;;;;;5.60;5.10;;;7.90;99.90;;;8.75;86.15;98587.78;5202758;28;20225;-53
2021/09/23 03:16:52;;;;;;;5.90;5.40;;;7.90;99.90;;;8.73;86.18;98594.44;5200905;28;20208;-56
2021/09/23 03:19:26;;;;;;;6.27;5.77;;;7.90;99.90;;;8.70;86.21;98581.44;5203173;28;20217;-51
2021/09/23 03:21:59;;;;;;;6.83;6.40;;;7.90;99.90;;;8.74;87.00;98580.91;5204533;28;20241;-52
2021/09/23 03:24:34;;;;;;;6.27;5.73;;;7.90;99.90;;;8.74;87.29;98573.28;5202589;28;20206;-56
2021/09/23 03:27:07;;;;;;;6.73;6.23;;;7.90;99.90;;;8.70;87.24;98566.16;5202227;28;20229;-54
2021/09/23 03:29:40;;;;;;;5.77;5.27;;;7.90;99.90;;;8.72;87.30;98559.50;5198932;28;20254;-55
2021/09/23 03:32:13;;;;;;;5.80;5.30;;;7.90;99.90;;;8.71;87.20;98558.63;5200902;28;20202;-54
2021/09/23 03:34:46;;;;;;;6.37;5.80;;;7.90;99.90;;;8.73;87.06;98563.84;5204492;28;20241;-59
2021/09/23 03:37:19;;;;;;;6.60;6.00;;;7.90;99.90;;;8.63;86.59;98566.47;5203078;28;20229;-51
2021/09/23 03:39:54;;;;;;;7.57;6.83;;;7.80;99.90;;;8.62;86.91;98570.69;5204114;28;20222;-57
2021/09/23 03:42:27;;;;;;;7.10;6.37;;;7.80;99.90;;;8.62;87.25;98565.59;5202376;28;20652;-56
2021/09/23 03:45:00;;;;;;;8.20;7.40;;;7.80;99.90;;;8.59;87.75;98565.34;5208802;28;20715;-57
2021/09/23 03:47:33;;;;;;;9.33;7.17;;;7.80;99.90;;;8.62;89.01;98564.72;5200214;28;20252;-56
2021/09/23 03:50:09;;;;;;;7.27;6.57;;;7.80;99.90;;;8.58;88.40;98568.66;5204066;28;20240;-53
2021/09/23 03:52:42;;;;;;;7.20;6.60;;;7.80;99.90;;;8.53;88.06;98560.69;5203989;28;20225;-56
2021/09/23 03:55:17;;;;;;;7.23;6.57;;;7.70;99.90;;;8.46;88.50;98563.50;5204140;28;20645;-56
2021/09/23 03:57:50;;;;;;;6.57;5.97;;;7.70;99.90;;;8.46;88.90;98562.63;5202331;28;20287;-56
2021/09/23 04:00:25;;;;;;;7.33;6.70;;;7.70;99.90;;;8.49;88.69;98557.78;5202684;28;20254;-57
2021/09/23 04:02:58;;;;;;;7.37;6.77;;;7.70;99.90;;;8.50;88.63;98550.25;5202959;28;20774;-53
2021/09/23 04:05:32;;;;;;;7.47;6.77;;;7.70;99.90;;;8.45;88.82;98551.56;5204303;28;20202;-55
2021/09/23 04:08:05;;;;;;;7.50;6.90;;;7.70;99.90;;;8.45;88.73;98556.66;5202321;28;20233;-55
2021/09/23 04:10:39;;;;;;;8.00;7.40;;;7.70;99.90;;;8.44;88.91;98544.72;5203797;28;20253;-53
2021/09/23 04:13:13;;;;;;;7.80;7.10;;;7.70;99.90;;;8.41;89.41;98552.09;5202213;28;20220;-53
2021/09/23 04:15:48;;;;;;;7.60;7.00;;;7.70;99.90;;;8.43;89.60;98542.03;5199901;28;20619;-54
2021/09/23 04:18:22;;;;;;;8.17;7.47;;;7.70;99.90;;;8.33;89.26;98545.50;5202580;28;20194;-55
2021/09/23 04:20:55;;;;;;;8.13;7.00;;;7.50;99.90;;;8.27;89.59;98550.09;5203115;28;20229;-57
2021/09/23 04:23:28;;;;;;;7.60;7.00;;;7.50;99.90;;;8.31;89.32;98539.41;5205156;28;20646;-56
2021/09/23 04:26:02;;;;;;;7.00;6.37;;;7.50;99.90;;;8.34;88.95;98525.22;5205775;28;20247;-52
2021/09/23 04:28:36;;;;;;;6.77;6.17;;;7.60;99.90;;;8.24;88.73;98524.41;5207835;28;20201;-52
2021/09/23 04:31:10;;;;;;;7.50;6.83;;;7.50;99.90;;;8.24;89.12;98521.84;5206346;28;20198;-53
2021/09/23 04:33:43;;;;;;;7.93;7.17;;;7.50;99.90;;;8.16;89.12;98517.88;5203747;28;20218;-59
2021/09/23 04:36:16;;;;;;;7.60;6.97;;;7.40;99.90;;;8.19;89.33;98516.44;5203447;28;20283;-54
2021/09/23 04:38:49;;;;;;;7.77;7.07;;;7.40;99.90;;;8.19;88.98;98520.63;5204390;28;20202;-52
2021/09/23 04:41:24;;;;;;;7.33;6.73;;;7.40;99.90;;;8.17;89.37;98522.16;5196236;28;20681;-56
2021/09/23 04:43:57;;;;;;;8.50;7.70;;;7.40;99.90;;;8.26;89.79;98522.88;5199478;28;20642;-54
2021/09/23 04:46:30;;;;;;;7.60;6.90;;;7.50;99.90;;;8.28;89.00;98516.25;5204899;28;20291;-55
2021/09/23 04:49:03;;;;;;;8.53;7.73;;;7.50;99.90;;;8.24;89.58;98509.13;5205123;28;20631;-55
2021/09/23 04:51:37;;;;;;;7.87;7.27;;;7.50;99.90;;;8.22;90.20;98503.94;5203093;28;20198;-52
2021/09/23 04:54:10;;;;;;;7.77;7.07;;;7.50;99.90;;;8.25;89.65;98485.47;5210507;28;20253;-54
2021/09/23 04:56:44;;;;;;;7.20;6.60;;;7.50;99.90;;;8.31;89.21;98485.91;5207276;28;20255;-53
2021/09/23 04:59:17;;;;;;;7.03;6.40;;;7.60;99.90;;;8.30;89.66;98474.84;5212830;28;20204;-54
2021/09/23 05:01:51;;;;;;;6.90;6.20;;;7.50;99.90;;;8.29;89.00;98490.00;5209689;28;20265;-59
2021/09/23 05:04:24;;;;;;;8.20;7.40;;;7.60;99.90;;;8.26;89.13;98487.22;5213551;28;20596;-57
2021/09/23 05:06:57;;;;;;;6.97;6.47;;;7.50;99.90;;;8.35;88.72;98491.38;5213708;28;20265;-58
2021/09/23 05:09:31;;;;;;;7.47;6.87;;;7.50;99.90;;;8.36;87.63;98492.25;5211233;28;20577;-51
2021/09/23 05:12:06;;;;;;;6.33;5.73;;;7.40;99.90;;;8.33;86.70;98492.91;5202241;28;20221;-56
2021/09/23 05:14:39;;;;;;;7.30;6.50;;;7.40;99.90;;;8.29;86.82;98490.00;5208219;28;20262;-57
2021/09/23 05:17:12;;;;;;;7.00;6.30;;;7.30;99.90;;;8.23;86.84;98484.44;5211418;28;20198;-57
2021/09/23 05:19:46;;;;;;;6.87;6.37;;;7.30;99.90;;;8.16;86.40;98489.84;5204329;28;20198;-56
2021/09/23 05:22:22;;;;;;;6.57;6.07;;;7.20;99.90;;;8.10;86.83;98491.16;5206915;28;20565;-54
2021/09/23 05:24:56;;;;;;;8.23;7.43;;;7.20;99.90;;;8.09;86.68;98485.94;5208195;28;20202;-54
2021/09/23 05:27:30;;;;;;;6.43;5.93;;;7.20;99.90;;;8.01;86.41;98475.19;5204262;28;20205;-56
2021/09/23 05:30:05;;;;;;;6.50;6.00;;;7.20;99.90;;;7.96;86.68;98471.38;5212676;28;20198;-58
2021/09/23 05:32:38;;;;;;;6.63;6.07;;;7.10;99.90;;;7.99;86.98;98475.81;5217589;28;20221;-56
2021/09/23 05:35:12;;;;;;;6.67;6.07;;;7.20;99.90;;;7.99;87.97;98476.72;5207417;28;20229;-53
2021/09/23 05:37:45;;;;;;;7.17;6.57;;;7.20;99.90;;;8.03;87.68;98468.53;5205224;28;20198;-54
2021/09/23 05:40:19;;;;;;;6.97;6.47;;;7.30;99.90;;;8.19;87.31;98468.06;5201375;28;20294;-54
2021/09/23 05:42:53;;;;;;;7.57;6.83;;;7.30;99.90;;;8.19;87.56;98467.16;5204656;28;20298;-58
2021/09/23 05:45:26;;;;;;;9.83;8.93;;;7.30;99.90;;;8.13;88.96;98460.84;5208349;28;20252;-54
2021/09/23 05:48:00;;;;;;;11.23;10.10;;;7.50;99.90;;;8.19;87.93;98450.22;5203307;28;20657;-57
2021/09/23 05:50:33;;;;;;;10.57;9.57;;;7.50;99.90;;;8.25;87.34;98450.69;5207851;28;20194;-55
2021/09/23 05:53:06;;;;;;;9.03;8.03;;;7.40;99.90;;;8.28;86.77;98452.56;5211157;28;20722;-55
2021/09/23 05:55:40;;;;;;;7.73;7.03;;;7.40;99.90;;;8.35;86.82;98449.69;5198472;28;20201;-55
2021/09/23 05:58:14;;;;;;;7.20;6.60;;;7.60;99.90;;;8.45;86.56;98448.78;5201898;28;20212;-51
2021/09/23 06:00:47;;;;;;;7.63;7.03;;;7.60;99.90;;;8.52;86.61;98454.44;5203863;28;20324;-57
2021/09/23 06:03:21;;;;;;;6.73;6.13;;;7.70;99.90;;;8.55;86.80;98458.88;5203221;28;20217;-55
2021/09/23 06:05:54;;;;;;;6.90;6.30;;;7.80;99.90;;;8.67;86.70;98463.97;5202958;28;20617;-56
2021/09/23 06:08:27;;;;;;;6.60;5.97;;;7.90;99.90;;;8.80;87.09;98453.94;5204348;28;20202;-56
2021/09/23 06:11:00;;;;;;;6.90;6.30;;;8.00;99.90;;;9.10;86.14;98460.38;5208744;28;20198;-56
2021/09/23 06:13:35;;;;;;;6.50;6.00;;;8.20;99.90;;;9.52;84.68;98460.78;5201862;28;20268;-57
2021/09/23 06:16:08;;;;;;;6.50;6.00;;;8.50;99.90;;;9.88;80.98;98459.94;5203867;28;20258;-56
2021/09/23 06:18:41;;;;;;;6.40;5.97;;;8.80;99.90;;;10.17;79.64;98451.72;5200187;28;20669;-56
2021/09/23 06:21:15;;;;;;;6.53;5.80;;;9.00;99.90;;;10.47;78.09;98454.59;5198141;28;20658;-56
2021/09/23 06:23:48;;;;;;;6.07;5.57;;;9.10;99.90;;;10.88;76.90;98456.44;5197221;28;20701;-55
2021/09/23 06:26:22;;;;;;;5.75;5.20;;;9.50;99.90;;;11.31;76.04;98460.09;5203509;28;20221;-51
2021/09/23 06:28:58;;;;;;;6.32;5.80;;;9.80;99.90;;;11.63;73.81;98464.69;5196445;28;20474;-54
2021/09/23 06:31:32;;;;;;;5.68;5.28;;;10.10;99.90;;;11.77;73.81;98469.78;5204278;28;20201;-54
2021/09/23 06:34:05;;;;;;;6.00;5.50;;;10.30;99.90;;;12.54;71.46;98477.94;5200862;28;20228;-58
2021/09/23 06:36:39;;;;;;;5.88;5.28;;;10.70;99.90;;;12.76;70.65;98467.22;5202366;28;20205;-55
2021/09/23 06:39:12;;;;;;;5.47;5.05;;;11.10;99.90;;;13.50;67.94;98462.94;5204995;28;20202;-55
2021/09/23 06:41:45;;;;;;;4.93;4.53;;;11.40;99.90;;;13.93;64.94;98457.56;5198230;28;20221;-56
2021/09/23 06:44:19;;;;;;;5.13;4.72;;;11.70;99.90;;;14.09;64.25;98445.53;5198789;28;20789;-53
2021/09/23 06:46:53;;;;;;;5.85;5.38;;;11.90;99.90;;;14.41;63.68;98432.66;5200692;28;20255;-56
2021/09/23 06:49:26;;;;;;;5.25;4.85;;;12.10;99.90;;;14.70;63.47;98434.97;5211863;28;20205;-56
2021/09/23 06:51:59;;;;;;;5.72;5.22;;;12.20;99.90;;;14.95;62.28;98439.66;5211609;28;20197;-59
2021/09/23 06:54:32;;;;;;;5.50;4.70;;;12.40;99.90;;;14.43;64.99;98443.91;5211486;28;20230;-56
2021/09/23 06:57:06;;;;;;;4.82;4.43;;;12.30;99.90;;;14.75;65.07;98444.69;5212529;28;20243;-57
2021/09/23 06:59:40;;;;;;;5.78;5.38;;;12.60;99.90;;;14.87;64.71;98435.00;5212222;28;20252;-53
2021/09/23 07:02:13;;;;;;;5.45;4.95;;;13.10;99.90;;;14.99;62.38;98434.69;5212598;28;20772;-53
2021/09/23 07:04:46;;;;;;;5.50;5.03;;;13.20;99.90;;;15.21;62.13;98430.59;5212255;28;20210;-59
2021/09/23 07:07:19;;;;;;;5.43;5.03;;;13.30;99.90;;;15.13;62.94;98417.34;5210770;28;20229;-53
2021/09/23 07:09:53;;;;;;;5.80;5.30;;;13.30;99.90;;;15.30;61.93;98421.63;5209733;28;20630;-59
2021/09/23 07:12:27;;;;;;;6.43;5.85;;;13.30;99.90;;;15.43;62.08;98428.25;5209428;28;20236;-59
2021/09/23 07:15:02;;;;;;;5.40;4.90;;;13.70;99.90;;;15.50;61.96;98427.72;5211678;28;20293;-53
2021/09/23 07:17:36;;;;;;;5.80;5.30;;;13.80;99.90;;;15.59;61.63;98432.41;5209776;28;20228;-52
2021/09/23 07:20:12;;;;;;;6.00;5.10;;;13.70;99.90;;;15.73;61.50;98425.34;5212725;28;20577;-56
2021/09/23 07:22:45;;;;;;;6.00;5.40;;;13.80;99.90;;;15.89;60.98;98429.53;5203521;28;20656;-56
2021/09/23 07:25:20;;;;;;;6.30;5.80;;;14.00;99.90;;;15.89;61.09;98424.38;5214192;28;20205;-57
2021/09/23 07:27:54;;;;;;;6.15;5.65;;;14.20;99.90;;;16.03;61.01;98425.88;5210776;28;20601;-55
2021/09/23 07:30:29;;;;;;;5.13;4.72;;;14.30;99.90;;;16.10;60.77;98430.47;5211109;28;20286;-53
2021/09/23 07:33:02;;;;;;;6.50;5.90;;;14.50;99.90;;;16.32;60.60;98421.13;5206553;28;20213;-55
2021/09/23 07:35:36;;;;;;;6.75;5.70;;;14.70;99.90;;;16.52;60.56;98428.00;5207310;28;20573;-57
2021/09/23 07:38:09;;;;;;;6.38;5.82;;;15.10;99.90;;;16.50;60.08;98427.06;5210333;28;20202;-59
2021/09/23 07:40:42;;;;;;;7.20;6.50;;;15.10;99.90;;;16.58;60.57;98424.81;5210357;28;20228;-55
2021/09/23 07:43:15;;;;;;;6.32;5.82;;;15.10;99.90;;;16.74;59.53;98426.31;5207605;28;20228;-54
2021/09/23 07:45:50;;;;;;;5.57;5.07;;;15.30;99.90;;;16.67;60.56;98423.50;5213404;28;20599;-57
2021/09/23 07:48:23;;;;;;;5.75;5.25;;;15.30;99.90;;;16.77;60.53;98421.31;5211472;28;20197;-56
2021/09/23 07:50:59;;;;;;;7.35;5.32;;;15.30;99.90;;;16.91;60.05;98429.66;5213107;28;20224;-56
2021/09/23 07:53:33;;;;;;;7.45;5.50;;;15.50;99.90;;;16.97;60.35;98425.63;5211834;28;20279;-61
2021/09/23 07:56:06;;;;;;;6.45;5.38;;;15.90;99.90;;;17.18;60.86;98419.56;5212455;28;20200;-61
2021/09/23 07:58:39;;;;;;;5.78;5.32;;;16.10;99.90;;;17.46;59.78;98418.97;5215786;28;20622;-62
2021/09/23 08:01:13;;;;;;;6.40;5.28;;;16.40;99.90;;;17.64;59.74;98421.38;5216193;28;20231;-61
2021/09/23 08:03:48;;;;;;;5.88;5.38;;;16.50;99.90;;;17.74;59.18;98426.94;5215197;28;20225;-61
2021/09/23 08:06:22;;;;;;;5.72;5.22;;;16.60;99.90;;;17.85;58.99;98429.94;5215782;28;20225;-62
2021/09/23 08:08:57;;;;;;;5.38;4.90;;;16.80;99.90;;;17.84;60.05;98430.78;5211612;28;20645;-62
2021/09/23 08:11:30;;;;;;;6.18;5.57;;;16.80;99.90;;;18.08;59.31;98425.63;5214560;28;20210;-62
2021/09/23 08:14:03;;;;;;;6.68;5.43;;;17.00;99.90;;;18.13;59.27;98430.97;5217111;28;20261;-61
2021/09/23 08:16:38;;;;;;;5.57;5.07;;;17.10;99.90;;;18.33;58.86;98430.00;5211924;28;20642;-62
2021/09/23 08:19:11;;;;;;;5.95;5.35;;;17.30;99.90;;;18.46;58.53;98423.56;5216418;28;20200;-61
2021/09/23 08:21:45;;;;;;;6.03;5.43;;;17.30;99.90;;;18.61;58.18;98436.16;5208717;28;20206;-62
2021/09/23 08:24:20;;;;;;;5.80;5.30;;;17.40;99.90;;;18.62;58.89;98430.13;5215504;28;20601;-61
2021/09/23 08:26:53;;;;;;;5.43;4.93;;;17.70;99.90;;;18.77;58.96;98441.06;5209963;28;20205;-61
2021/09/23 08:29:27;;;;;;;5.88;4.95;;;17.80;99.90;;;18.95;58.54;98434.75;5212131;28;20204;-62
2021/09/23 08:32:01;;;;;;;5.75;5.25;;;17.80;99.90;;;18.90;58.42;98425.09;5210557;28;20206;-62
2021/09/23 08:34:34;;;;;;;5.47;4.97;;;17.90;99.90;;;19.05;58.28;98410.88;5216292;28;20220;-62
2021/09/23 08:37:07;;;;;;;6.20;5.70;;;18.00;99.90;;;19.17;57.38;98406.06;5208895;28;20201;-62
2021/09/23 08:39:40;;;;;;;6.63;6.03;;;18.00;99.90;;;19.09;57.31;98417.94;5210674;28;20205;-61
2021/09/23 08:42:15;;;;;;;7.43;6.82;;;17.90;99.90;;;19.29;56.60;98418.56;5212322;28;20210;-61
2021/09/23 08:44:50;;;;;;;6.78;6.18;;;18.00;99.90;;;19.39;56.32;98422.31;5212311;28;20192;-62
2021/09/23 08:47:25;;;;;;;6.43;5.80;;;18.10;99.90;;;19.48;56.86;98423.47;5211806;28;20205;-62
2021/09/23 08:49:58;;;;;;;6.55;6.05;;;18.30;99.90;;;19.58;55.81;98416.88;5206999;28;20201;-61
2021/09/23 08:52:31;;;;;;;5.88;5.38;;;18.40;99.90;;;19.54;56.08;98413.31;5206329;28;20257;-62
2021/09/23 08:55:05;;;;;;;6.22;5.63;;;18.50;99.90;;;19.64;55.72;98414.47;5206825;28;20201;-61
2021/09/23 08:57:38;;;;;;;5.97;5.38;;;18.50;99.90;;;19.75;55.83;98412.22;5208808;28;20205;-62
2021/09/23 09:00:13;;;;;;;6.15;5.30;;;18.60;99.90;;;19.75;56.15;98410.50;5202555;28;20217;-62
2021/09/23 09:03:01;;;;;;;6.40;5.80;;;18.70;99.90;;;19.94;56.13;98418.81;5207518;28;20244;-62
2021/09/23 09:05:37;;;;;;;5.88;5.15;;;18.80;99.90;;;20.00;55.64;98417.31;5204727;28;20208;-63
2021/09/23 09:08:11;;;;;;;6.30;5.70;;;19.10;99.90;;;20.09;55.33;98408.91;5206486;28;20553;-62
2021/09/23 09:10:44;;;;;;;6.47;5.40;;;19.10;99.90;;;20.14;54.91;98403.81;5206929;28;20197;-61
2021/09/23 09:13:17;;;;;;;6.25;5.60;;;19.20;99.90;;;20.21;54.67;98391.06;5208024;28;20213;-62
2021/09/23 09:15:51;;;;;;;5.88;5.25;;;19.30;99.90;;;20.28;52.55;98393.81;5207247;28;20260;-62
2021/09/23 09:18:25;;;;;;;5.68;5.18;;;19.40;99.90;;;20.40;51.70;98386.34;5204341;28;20198;-61
2021/09/23 09:21:02;;;;;;;6.07;5.57;;;19.50;99.40;;;20.43;52.59;98379.56;5204189;28;20555;-62
2021/09/23 09:23:48;;;;;;;5.85;5.25;;;19.60;99.90;;;20.37;52.66;98373.28;5204626;28;20714;-63
2021/09/23 09:26:31;;;;;;;5.65;5.13;;;19.60;99.70;;;20.48;52.34;98371.84;5204825;28;20669;-62
2021/09/23 09:29:06;;;;;;;5.75;5.25;;;19.50;99.50;;;20.55;51.88;98371.22;5216694;28;20204;-63
2021/09/23 09:31:48;;;;;;;5.43;4.93;;;19.70;99.30;;;20.73;50.55;98368.22;5220689;28;20311;-62
2021/09/23 09:34:23;;;;;;;5.80;5.13;;;19.70;98.70;;;20.72;50.91;98365.56;5212514;28;20226;-62
2021/09/23 09:37:00;;;;;;;5.55;5.05;;;19.60;98.80;;;20.67;51.79;98358.53;5207125;28;20205;-63
2021/09/23 09:39:34;;;;;;;5.38;4.65;;;19.90;98.90;;;20.73;51.25;98352.63;5222199;28;20204;-62
2021/09/23 09:42:15;;;;;;;5.20;4.65;;;20.10;98.70;;;20.84;51.80;98353.75;5220807;28;20209;-63
2021/09/23 09:44:54;;;;;;;5.03;4.50;;;20.10;99.00;;;20.92;51.37;98348.75;5213508;28;20228;-63
2021/09/23 09:47:29;;;;;;;5.43;4.68;;;20.20;98.80;;;21.02;50.79;98340.31;5213557;28;20545;-61
2021/09/23 09:50:12;;;;;;;5.57;5.03;;;20.30;98.40;;;21.07;51.00;98332.66;5209690;28;20244;-62
2021/09/23 09:52:56;;;;;;;5.72;5.20;;;20.30;98.40;;;21.00;50.83;98329.00;5220790;28;20236;-62
2021/09/23 09:55:32;;;;;;;5.00;4.50;;;20.20;98.50;;;21.03;50.60;98321.31;5217010;28;20233;-62
2021/09/23 09:58:06;;;;;;;5.68;4.45;;;20.20;98.40;;;21.02;50.92;98314.34;5200697;28;20202;-62
2021/09/23 10:00:40;;;;;;;4.80;4.40;;;20.20;98.20;;;;;;5213727;28;20201;-62
2021/09/23 10:03:13;;;;;;;5.20;4.45;;;20.20;97.70;;;21.24;50.54;98307.91;5209245;28;20225;-62
2021/09/23 10:05:48;;;;;;;4.22;3.92;;;20.40;98.10;;;21.36;49.41;98316.00;5209920;28;20267;-62
2021/09/23 10:08:22;;;;;;;4.68;4.15;;;20.50;97.60;;;21.45;49.75;98310.09;5211843;28;20248;-62
2021/09/23 10:10:55;;;;;;;5.75;4.22;;;20.60;97.80;;;21.56;48.30;98306.00;5217062;28;20202;-63
2021/09/23 10:13:30;;;;;;;4.32;3.90;;;20.60;96.80;;;21.56;48.64;98299.94;5206246;28;20234;-63
2021/09/23 10:16:03;;;;;;;4.80;4.30;;;20.80;96.70;;;21.61;47.91;98294.84;5210246;28;20197;-61
2021/09/23 10:18:37;;;;;;;3.85;3.55;;;20.90;96.30;;;21.66;47.79;98293.19;5207836;28;20636;-62
2021/09/23 10:21:12;;;;;;;4.35;3.83;;;20.80;96.40;;;21.70;47.82;98295.03;5207023;28;20236;-63
2021/09/23 10:23:46;;;;;;;4.07;3.70;;;20.80;96.30;;;21.63;47.74;98293.13;5202301;28;20257;-61
2021/09/23 10:26:24;;;;;;;4.32;3.90;;;20.80;96.20;;;21.71;48.57;98304.56;5214767;28;20231;-62
2021/09/23 10:29:00;;;;;;;3.80;3.50;;;21.00;96.50;;;21.71;49.27;98294.16;5206974;28;20720;-62
2021/09/23 10:31:35;;;;;;;5.05;3.97;;;21.10;96.50;;;21.82;48.29;98300.47;5203921;28;20185;-62
2021/09/23 10:34:10;;;;;;;4.47;3.90;;;21.10;96.00;;;21.80;48.06;98297.84;5207788;28;20705;-62
2021/09/23 10:36:45;;;;;;;4.82;4.43;;;21.10;96.20;;;21.88;47.92;98299.69;5205393;28;20657;-62
2021/09/23 10:39:18;;;;;;;5.65;4.30;;;21.10;96.40;;;21.88;47.78;98297.09;5211013;28;20225;-62
2021/09/23 10:41:51;;;;;;;4.03;3.63;;;21.20;95.90;;;21.86;48.12;98301.38;5199825;28;20198;-62
2021/09/23 10:44:25;;;;;;;4.20;3.80;;;21.20;96.00;;;21.93;47.50;98303.28;5207122;28;20643;-63
2021/09/23 10:47:00;;;;;;;4.20;3.80;;;21.20;95.80;;;21.81;48.66;98296.13;5204421;28;20293;-62
2021/09/23 10:49:33;;;;;;;3.88;3.58;;;21.10;96.50;;;21.95;47.77;98293.78;5212642;28;20496;-63
2021/09/23 10:52:10;;;;;;;3.75;3.30;;;21.20;95.90;;;21.91;47.60;98300.63;5210002;28;20198;-62
2021/09/23 10:54:44;;;;;;;4.07;3.78;;;21.20;95.40;;;21.98;46.30;98305.13;5212743;28;20228;-63
2021/09/23 10:57:19;;;;;;;4.18;3.30;;;21.10;94.90;;;22.10;46.38;98290.56;5207177;28;20549;-63